SLEK weather

El Condor Airport
Tesoro, Tarija Department, Bolivia

Public forecast

Using degrees Celsius for public forecast. Weather courtesy of forecast.io.

METAR (pilot weather report)

Report is more than 2 hours old.

Closest report is Yacuiba Airport, 19.0 nm (35.2 km) SW. Retrieved 2019/07/17 23:00 UTC (3 hours ago):

SLYA 172300Z 00000KT 9999 BKN070 15/14 Q1017

TAF (pilot weather forecast)

Forecast is more than 12 hours old.

Closest forecast is Yacuiba Airport, 19.0 nm (35.2 km) SW. Retrieved 2019/05/06 00:28 UTC (2 months ago):

TAF SLYA 062200Z 0700/0724 00000KT 9999 SCT015 SCT070 TX25/0719Z TN16 /0711Z BECMG 0704/0706 5000 DZ BKN005 BKN070 BECMG 0711/0713 9999 NSW SCT010 BKN070